createdAt,value
2018-12-31T00:01:12.368Z,25.13
2018-12-31T00:03:40.629Z,24.77
2018-12-31T00:06:08.681Z,30.57
2018-12-31T00:08:36.712Z,23.80
2018-12-31T00:11:04.769Z,32.73
2018-12-31T00:13:33.136Z,30.93
2018-12-31T00:16:01.356Z,29.40
2018-12-31T00:18:29.402Z,24.77
2018-12-31T00:20:57.435Z,38.23
2018-12-31T00:23:25.506Z,29.37
2018-12-31T00:25:53.535Z,26.83
2018-12-31T00:28:21.781Z,27.83
2018-12-31T00:30:49.786Z,18.50
2018-12-31T00:33:17.868Z,28.03
2018-12-31T00:35:45.934Z,28.37
2018-12-31T00:38:13.985Z,20.63
2018-12-31T00:40:42.070Z,29.60
2018-12-31T00:43:10.102Z,20.20
2018-12-31T00:45:38.334Z,25.47
2018-12-31T00:48:06.361Z,26.23
2018-12-31T00:50:34.399Z,23.93
2018-12-31T00:53:02.457Z,21.97
2018-12-31T00:55:30.511Z,30.10
2018-12-31T00:57:58.583Z,27.10
2018-12-31T01:00:26.638Z,27.23
2018-12-31T01:02:54.708Z,24.93
2018-12-31T01:05:22.763Z,27.00
2018-12-31T01:07:50.803Z,28.10
2018-12-31T01:10:18.874Z,25.80
2018-12-31T01:12:47.024Z,25.50
2018-12-31T01:15:15.097Z,29.47
2018-12-31T01:17:43.121Z,26.20
2018-12-31T01:20:11.211Z,38.87
2018-12-31T01:22:39.256Z,29.30
2018-12-31T01:25:07.279Z,38.13
2018-12-31T01:27:35.350Z,24.93
2018-12-31T01:30:03.495Z,28.27
2018-12-31T01:32:31.586Z,27.00
2018-12-31T01:34:59.623Z,27.60
2018-12-31T01:37:27.695Z,34.40
2018-12-31T01:39:55.739Z,34.53
2018-12-31T01:42:24.003Z,32.00
2018-12-31T01:44:52.056Z,29.27
2018-12-31T01:47:20.092Z,30.80
2018-12-31T01:49:48.147Z,34.83
2018-12-31T01:52:16.203Z,26.83
2018-12-31T01:54:44.282Z,33.57
2018-12-31T01:57:12.351Z,28.10
2018-12-31T01:59:40.415Z,31.43
2018-12-31T02:02:08.483Z,27.73
2018-12-31T02:04:36.528Z,29.90
2018-12-31T02:07:04.605Z,26.70
2018-12-31T02:09:32.629Z,22.50
2018-12-31T02:12:00.770Z,29.67
2018-12-31T02:14:28.827Z,23.53
2018-12-31T02:16:56.870Z,31.13
2018-12-31T02:19:24.971Z,28.60
2018-12-31T02:21:53.007Z,23.97
2018-12-31T02:24:21.078Z,26.03
2018-12-31T02:26:49.134Z,23.63
2018-12-31T02:29:17.166Z,25.67
2018-12-31T02:31:45.245Z,26.83
2018-12-31T02:34:13.303Z,23.03
2018-12-31T02:36:41.371Z,23.37
2018-12-31T02:39:09.391Z,24.57
2018-12-31T02:41:37.498Z,27.80
2018-12-31T02:44:05.537Z,23.80
2018-12-31T02:46:33.567Z,25.00
2018-12-31T02:49:01.633Z,27.43
2018-12-31T02:51:29.667Z,30.03
2018-12-31T02:53:57.718Z,30.73
2018-12-31T02:56:25.767Z,26.57
2018-12-31T02:58:53.832Z,22.20
2018-12-31T03:01:21.962Z,25.10
2018-12-31T03:03:49.995Z,22.73
2018-12-31T03:06:18.059Z,26.67
2018-12-31T03:08:46.353Z,33.70
2018-12-31T03:11:14.458Z,23.97
2018-12-31T03:13:42.506Z,26.67
2018-12-31T03:16:10.602Z,23.40
2018-12-31T03:18:39.255Z,24.80
2018-12-31T03:21:07.289Z,23.10
2018-12-31T03:23:35.359Z,21.97
2018-12-31T03:26:03.399Z,27.30
2018-12-31T03:28:31.650Z,35.77
2018-12-31T03:30:59.700Z,27.70
2018-12-31T03:33:27.878Z,26.33
2018-12-31T03:35:55.951Z,29.53
2018-12-31T03:38:23.978Z,29.80
2018-12-31T03:40:52.039Z,29.80
2018-12-31T03:43:20.072Z,29.80
2018-12-31T03:45:48.147Z,23.40
2018-12-31T03:48:16.170Z,22.17
2018-12-31T03:50:44.331Z,22.20
2018-12-31T03:53:12.355Z,16.97
2018-12-31T03:55:40.387Z,24.53
2018-12-31T03:58:08.468Z,20.37
2018-12-31T04:00:36.508Z,18.10
2018-12-31T04:03:04.575Z,25.30
2018-12-31T04:05:32.593Z,16.57
2018-12-31T04:08:00.655Z,17.53
2018-12-31T04:10:28.677Z,20.87
2018-12-31T04:12:56.692Z,16.03
2018-12-31T04:15:24.745Z,17.00
2018-12-31T04:17:52.768Z,17.47
2018-12-31T04:20:20.829Z,15.77
2018-12-31T04:22:48.850Z,17.13
2018-12-31T04:25:16.899Z,17.53
2018-12-31T04:27:47.665Z,16.70
2018-12-31T04:30:15.701Z,20.30
2018-12-31T04:32:43.855Z,12.70
2018-12-31T04:35:11.904Z,15.57
2018-12-31T04:37:39.969Z,14.47
2018-12-31T04:40:08.020Z,20.63
2018-12-31T04:42:36.141Z,12.87
2018-12-31T04:45:04.396Z,16.70
2018-12-31T04:47:32.427Z,15.30
2018-12-31T04:50:00.471Z,14.77
2018-12-31T04:52:28.525Z,13.20
2018-12-31T04:54:56.643Z,19.17
2018-12-31T04:57:24.666Z,15.03
2018-12-31T04:59:52.691Z,14.23
2018-12-31T05:02:20.755Z,19.33
2018-12-31T05:04:48.776Z,14.90
2018-12-31T05:07:16.822Z,15.43
2018-12-31T05:09:44.859Z,16.27
2018-12-31T05:12:13.086Z,18.80
2018-12-31T05:14:41.116Z,12.50
2018-12-31T05:17:09.142Z,16.00
2018-12-31T05:19:37.212Z,18.23
2018-12-31T05:22:05.228Z,12.87
2018-12-31T05:24:33.282Z,16.37
2018-12-31T05:27:01.313Z,27.17
2018-12-31T05:29:29.496Z,12.70
2018-12-31T05:31:57.519Z,18.33
2018-12-31T05:34:25.547Z,14.40
2018-12-31T05:36:53.634Z,18.20
2018-12-31T05:39:21.663Z,16.23
2018-12-31T05:41:49.723Z,13.00
2018-12-31T05:44:17.755Z,18.00
2018-12-31T05:46:45.817Z,14.07
2018-12-31T05:49:13.851Z,15.87
2018-12-31T05:51:42.036Z,17.73
2018-12-31T05:54:10.065Z,21.27
2018-12-31T05:56:38.091Z,16.90
2018-12-31T05:59:06.155Z,16.23
2018-12-31T06:01:34.199Z,23.37
2018-12-31T06:04:02.252Z,20.43
2018-12-31T06:06:30.291Z,21.90
2018-12-31T06:08:58.359Z,15.83
2018-12-31T06:11:26.446Z,21.70
2018-12-31T06:13:54.449Z,14.70
2018-12-31T06:16:22.481Z,17.80
2018-12-31T06:18:50.654Z,24.13
2018-12-31T06:21:18.691Z,13.40
2018-12-31T06:23:46.919Z,12.37
2018-12-31T06:26:14.940Z,19.47
2018-12-31T06:28:42.984Z,12.90
2018-12-31T06:31:11.024Z,13.30
2018-12-31T06:33:39.072Z,13.00
2018-12-31T06:36:07.125Z,11.00
2018-12-31T06:38:35.187Z,16.87
2018-12-31T06:41:03.439Z,12.87
2018-12-31T06:43:31.496Z,20.97
2018-12-31T06:45:59.525Z,13.70
2018-12-31T06:48:27.602Z,14.80
2018-12-31T06:50:55.636Z,12.07
2018-12-31T06:53:23.711Z,13.53
2018-12-31T06:55:51.731Z,17.30
2018-12-31T06:58:19.885Z,14.97
2018-12-31T07:00:47.925Z,16.53
2018-12-31T07:03:16.122Z,17.47
2018-12-31T07:05:44.198Z,21.17
2018-12-31T07:08:12.244Z,12.80
2018-12-31T07:10:40.308Z,11.57
2018-12-31T07:13:08.352Z,10.00
2018-12-31T07:15:36.413Z,13.27
2018-12-31T07:18:04.451Z,14.60
2018-12-31T07:20:32.566Z,17.60
2018-12-31T07:23:00.613Z,18.67
2018-12-31T07:25:28.671Z,11.37
2018-12-31T07:27:56.703Z,22.30
2018-12-31T07:30:24.771Z,11.00
2018-12-31T07:32:52.820Z,10.50
2018-12-31T07:35:20.867Z,14.80
2018-12-31T07:37:49.130Z,13.30
2018-12-31T07:40:17.168Z,11.60
2018-12-31T07:42:45.222Z,9.97
2018-12-31T07:45:13.263Z,12.17
2018-12-31T07:47:41.516Z,17.97
2018-12-31T07:50:09.551Z,12.03
2018-12-31T07:52:37.579Z,13.23
2018-12-31T07:55:05.652Z,10.80
2018-12-31T07:57:33.672Z,12.73
2018-12-31T08:00:01.734Z,11.67
2018-12-31T08:02:29.756Z,9.50
2018-12-31T08:04:57.815Z,11.53
2018-12-31T08:07:25.839Z,10.27
2018-12-31T08:09:54.065Z,14.90
2018-12-31T08:12:22.088Z,14.63
2018-12-31T08:14:50.140Z,11.70
2018-12-31T08:17:18.195Z,11.27
2018-12-31T08:19:46.288Z,13.40
2018-12-31T08:22:14.337Z,10.33
2018-12-31T08:24:42.367Z,12.37
2018-12-31T08:27:10.451Z,12.07
2018-12-31T08:29:38.483Z,9.63
2018-12-31T08:32:06.555Z,16.30
2018-12-31T08:34:34.582Z,11.30
2018-12-31T08:37:02.627Z,10.33
2018-12-31T08:39:30.716Z,14.63
2018-12-31T08:41:58.780Z,10.27
2018-12-31T08:44:26.839Z,11.53
2018-12-31T08:46:54.860Z,11.50
2018-12-31T08:49:22.910Z,11.43
2018-12-31T08:51:50.939Z,7.60
2018-12-31T08:54:19.039Z,6.47
2018-12-31T08:56:47.068Z,9.73
2018-12-31T08:59:15.087Z,8.40
2018-12-31T09:01:43.135Z,6.93
2018-12-31T09:04:11.170Z,10.43
2018-12-31T09:06:39.315Z,10.60
2018-12-31T09:09:07.388Z,10.10
2018-12-31T09:11:35.483Z,8.07
2018-12-31T09:14:03.657Z,12.30
2018-12-31T09:16:31.667Z,6.97
2018-12-31T09:18:59.794Z,6.70
2018-12-31T09:21:27.860Z,8.93
2018-12-31T09:23:55.924Z,23.63
2018-12-31T09:26:23.953Z,8.57
2018-12-31T09:28:51.979Z,8.07
2018-12-31T09:31:20.027Z,7.23
2018-12-31T09:33:48.051Z,7.40
2018-12-31T09:36:16.101Z,8.90
2018-12-31T09:38:44.128Z,6.50
2018-12-31T09:41:12.320Z,9.27
2018-12-31T09:43:40.352Z,7.57
2018-12-31T09:46:08.378Z,7.53
2018-12-31T09:48:36.430Z,8.10
2018-12-31T09:51:04.442Z,7.20
2018-12-31T09:53:32.497Z,5.87
2018-12-31T09:56:00.528Z,8.10
2018-12-31T09:58:28.559Z,6.13
2018-12-31T10:00:56.615Z,7.97
2018-12-31T10:03:24.651Z,8.80
2018-12-31T10:05:52.713Z,8.23
2018-12-31T10:08:20.748Z,6.40
2018-12-31T10:10:49.079Z,6.07
2018-12-31T10:13:17.102Z,8.30
2018-12-31T10:15:45.230Z,7.83
2018-12-31T10:18:13.275Z,12.23
2018-12-31T10:20:41.299Z,8.33
2018-12-31T10:23:09.351Z,14.03
2018-12-31T10:25:37.389Z,22.33
2018-12-31T10:28:05.715Z,8.90
2018-12-31T10:30:33.778Z,11.23
2018-12-31T10:33:01.904Z,8.27
2018-12-31T10:35:29.938Z,10.47
2018-12-31T10:37:58.081Z,10.93
2018-12-31T10:40:27.956Z,10.27
2018-12-31T10:42:55.813Z,8.43
2018-12-31T10:45:23.874Z,12.10
2018-12-31T10:47:51.894Z,10.97
2018-12-31T10:50:19.947Z,13.60
2018-12-31T10:52:47.979Z,10.70
2018-12-31T10:55:16.052Z,10.33
2018-12-31T10:57:44.076Z,8.70
2018-12-31T11:00:12.115Z,7.10
2018-12-31T11:02:40.147Z,12.43
2018-12-31T11:05:08.211Z,10.30
2018-12-31T11:07:36.239Z,11.53
2018-12-31T11:10:04.676Z,7.23
2018-12-31T11:12:32.728Z,8.30
2018-12-31T11:15:00.754Z,11.30
2018-12-31T11:17:28.828Z,13.50
2018-12-31T11:19:56.847Z,8.17
2018-12-31T11:22:24.903Z,9.80
2018-12-31T11:24:52.927Z,8.30
2018-12-31T11:27:20.994Z,9.27
2018-12-31T11:29:49.019Z,8.00
2018-12-31T11:32:17.082Z,10.17
2018-12-31T11:34:45.103Z,8.90
2018-12-31T11:37:13.160Z,10.37
2018-12-31T11:39:41.193Z,9.17
2018-12-31T11:42:09.248Z,10.97
2018-12-31T11:44:37.303Z,9.40
2018-12-31T11:47:05.332Z,8.43
2018-12-31T11:49:33.391Z,9.37
2018-12-31T11:52:01.420Z,9.03
2018-12-31T11:54:29.479Z,8.10
2018-12-31T11:56:57.503Z,11.13
2018-12-31T11:59:25.707Z,8.03
2018-12-31T12:01:55.618Z,8.13
2018-12-31T12:04:23.411Z,8.80
2018-12-31T12:06:51.500Z,9.30
2018-12-31T12:09:19.515Z,9.40
2018-12-31T12:11:47.566Z,8.80
2018-12-31T12:14:15.594Z,10.47
2018-12-31T12:16:43.655Z,14.80
2018-12-31T12:19:11.701Z,11.43
2018-12-31T12:21:39.751Z,11.10
2018-12-31T12:24:07.775Z,9.80
2018-12-31T12:26:35.823Z,9.93
2018-12-31T12:29:03.849Z,7.97
2018-12-31T12:31:33.094Z,6.07
2018-12-31T12:34:01.126Z,8.20
2018-12-31T12:36:29.155Z,11.27
2018-12-31T12:38:57.216Z,8.13
2018-12-31T12:41:25.244Z,9.73
2018-12-31T12:43:53.339Z,8.87
2018-12-31T12:46:21.375Z,12.47
2018-12-31T12:48:49.434Z,8.80
2018-12-31T12:51:17.459Z,9.47
2018-12-31T12:53:45.520Z,12.57
2018-12-31T12:56:13.559Z,11.73
2018-12-31T12:58:41.611Z,8.10
2018-12-31T13:01:09.660Z,8.80
2018-12-31T13:03:37.687Z,8.40
2018-12-31T13:06:05.788Z,11.67
2018-12-31T13:08:33.824Z,11.10
2018-12-31T13:11:02.167Z,10.00
2018-12-31T13:13:30.211Z,12.23
2018-12-31T13:15:58.278Z,11.20
2018-12-31T13:18:26.309Z,9.47
2018-12-31T13:20:54.334Z,8.57
2018-12-31T13:23:22.799Z,8.10
2018-12-31T13:25:50.830Z,9.27
2018-12-31T13:28:18.890Z,13.23
2018-12-31T13:30:46.931Z,9.73
2018-12-31T13:33:14.989Z,5.57
2018-12-31T13:35:43.020Z,13.00
2018-12-31T13:38:11.290Z,8.53
2018-12-31T13:40:39.326Z,13.00
2018-12-31T13:43:07.357Z,8.20
2018-12-31T13:45:35.440Z,7.47
2018-12-31T13:48:03.470Z,8.60
2018-12-31T13:50:31.938Z,8.03
2018-12-31T13:53:00.036Z,7.90
2018-12-31T13:55:28.093Z,7.77
2018-12-31T13:57:56.115Z,9.27
2018-12-31T14:00:24.153Z,7.27
2018-12-31T14:02:52.416Z,6.30
2018-12-31T14:05:20.446Z,15.43
2018-12-31T14:07:48.510Z,8.10
2018-12-31T14:10:16.527Z,7.43
2018-12-31T14:12:44.588Z,9.23
2018-12-31T14:15:12.606Z,8.37
2018-12-31T14:17:40.667Z,10.10
2018-12-31T14:20:08.691Z,7.70
2018-12-31T14:22:36.752Z,10.53
2018-12-31T14:25:04.998Z,8.07
2018-12-31T14:27:33.039Z,8.07
2018-12-31T14:30:01.071Z,13.53
2018-12-31T14:32:29.144Z,8.47
2018-12-31T14:34:57.180Z,12.87
2018-12-31T14:37:25.208Z,10.13
2018-12-31T14:39:53.303Z,9.90
2018-12-31T14:42:21.695Z,9.60
2018-12-31T14:44:49.743Z,9.70
2018-12-31T14:47:18.430Z,10.53
2018-12-31T14:49:46.884Z,13.60
2018-12-31T14:52:14.903Z,12.33
2018-12-31T14:54:43.035Z,12.00
2018-12-31T14:57:11.052Z,12.20
2018-12-31T14:59:39.107Z,13.03
2018-12-31T15:02:07.139Z,13.53
2018-12-31T15:04:35.192Z,11.43
2018-12-31T15:07:03.227Z,12.40
2018-12-31T15:09:31.271Z,15.20
2018-12-31T15:11:59.319Z,17.83
2018-12-31T15:14:27.381Z,12.60
2018-12-31T15:16:55.432Z,15.20
2018-12-31T15:19:23.468Z,15.40
2018-12-31T15:21:52.100Z,14.60
2018-12-31T15:24:20.128Z,16.80
2018-12-31T15:26:48.155Z,19.20
2018-12-31T15:29:16.248Z,12.30
2018-12-31T15:31:44.272Z,18.73
2018-12-31T15:34:12.428Z,19.20
2018-12-31T15:36:40.465Z,17.97
2018-12-31T15:39:08.527Z,15.53
2018-12-31T15:41:36.580Z,13.23
2018-12-31T15:44:04.615Z,14.40
2018-12-31T15:46:32.933Z,11.83
2018-12-31T15:49:01.154Z,16.13
2018-12-31T15:51:29.199Z,13.43
2018-12-31T15:53:57.259Z,12.87
2018-12-31T15:56:25.294Z,17.83
2018-12-31T15:58:53.443Z,10.60
2018-12-31T16:01:21.479Z,12.63
2018-12-31T16:03:49.543Z,19.00
2018-12-31T16:06:17.680Z,16.30
2018-12-31T16:08:45.708Z,12.97
2018-12-31T16:11:13.756Z,18.70
2018-12-31T16:13:41.816Z,15.90
2018-12-31T16:16:09.870Z,17.53
2018-12-31T16:18:37.895Z,16.70
2018-12-31T16:21:06.146Z,16.50
2018-12-31T16:23:34.225Z,19.17
2018-12-31T16:26:02.249Z,19.90
2018-12-31T16:28:30.819Z,17.40
2018-12-31T16:30:58.852Z,20.00
2018-12-31T16:33:26.912Z,20.73
2018-12-31T16:35:54.948Z,22.50
2018-12-31T16:38:23.166Z,21.43
2018-12-31T16:40:51.179Z,18.60
2018-12-31T16:43:19.247Z,17.93
2018-12-31T16:45:47.299Z,20.70
2018-12-31T16:48:15.349Z,23.47
2018-12-31T16:50:43.406Z,26.37
2018-12-31T16:53:11.496Z,21.57
2018-12-31T16:55:39.955Z,18.90
2018-12-31T16:58:07.988Z,20.67
2018-12-31T17:00:36.323Z,32.83
2018-12-31T17:03:04.360Z,23.83
2018-12-31T17:05:32.412Z,24.87
2018-12-31T17:08:00.506Z,18.07
2018-12-31T17:10:28.540Z,21.03
2018-12-31T17:12:56.604Z,25.53
2018-12-31T17:15:24.643Z,23.20
2018-12-31T17:17:52.694Z,17.80
2018-12-31T17:20:20.731Z,22.63
2018-12-31T17:22:49.143Z,22.20
2018-12-31T17:25:17.231Z,18.80
2018-12-31T17:27:45.570Z,22.40
2018-12-31T17:30:13.632Z,26.33
2018-12-31T17:32:41.676Z,22.27
2018-12-31T17:35:09.731Z,21.10
2018-12-31T17:37:37.765Z,30.87
2018-12-31T17:40:06.090Z,23.47
2018-12-31T17:42:34.123Z,22.10
2018-12-31T17:45:02.193Z,18.63
2018-12-31T17:47:30.435Z,14.97
2018-12-31T17:49:58.812Z,37.30
2018-12-31T17:52:26.870Z,29.57
2018-12-31T17:54:54.909Z,22.50
2018-12-31T17:57:22.981Z,21.37
2018-12-31T17:59:51.023Z,24.40
2018-12-31T18:02:19.052Z,20.33
2018-12-31T18:04:47.134Z,25.60
2018-12-31T18:07:15.155Z,22.47
2018-12-31T18:09:43.219Z,23.90
2018-12-31T18:12:11.259Z,24.20
2018-12-31T18:14:39.435Z,35.23
2018-12-31T18:17:07.895Z,38.87
2018-12-31T18:19:35.946Z,36.00
2018-12-31T18:22:04.060Z,29.97
2018-12-31T18:24:32.124Z,24.13
2018-12-31T18:27:00.183Z,22.60
2018-12-31T18:29:28.221Z,22.90
2018-12-31T18:31:56.283Z,28.90
2018-12-31T18:34:24.323Z,24.10
2018-12-31T18:36:52.366Z,25.13
2018-12-31T18:39:20.415Z,27.57
2018-12-31T18:41:48.456Z,25.20
2018-12-31T18:44:16.766Z,24.27
2018-12-31T18:46:44.794Z,28.97
2018-12-31T18:49:12.856Z,24.83
2018-12-31T18:51:40.911Z,19.90
2018-12-31T18:54:09.190Z,21.40
2018-12-31T18:56:37.227Z,21.93
2018-12-31T18:59:05.269Z,27.37
2018-12-31T19:01:33.319Z,21.50
2018-12-31T19:04:01.355Z,25.47
2018-12-31T19:06:29.419Z,19.37
2018-12-31T19:08:57.450Z,28.57
2018-12-31T19:11:25.702Z,25.47
2018-12-31T19:13:53.736Z,31.00
2018-12-31T19:16:21.923Z,24.80
2018-12-31T19:18:50.054Z,25.53
2018-12-31T19:21:18.097Z,28.23
2018-12-31T19:23:46.155Z,35.40
2018-12-31T19:26:14.224Z,37.80
2018-12-31T19:28:42.283Z,44.90
2018-12-31T19:31:10.340Z,44.60
2018-12-31T19:33:38.557Z,29.50
2018-12-31T19:36:06.587Z,33.33
2018-12-31T19:38:34.919Z,35.97
2018-12-31T19:41:02.983Z,30.27
2018-12-31T19:43:31.018Z,27.37
2018-12-31T19:45:59.150Z,24.43
2018-12-31T19:48:27.269Z,26.73
2018-12-31T19:50:55.446Z,25.73
2018-12-31T19:53:23.497Z,24.07
2018-12-31T19:55:51.521Z,26.87
2018-12-31T19:58:19.583Z,29.30
2018-12-31T20:00:47.636Z,23.93
2018-12-31T20:03:15.694Z,21.60
2018-12-31T20:05:44.043Z,26.67
2018-12-31T20:08:12.107Z,23.60
2018-12-31T20:10:40.252Z,26.30
2018-12-31T20:13:08.314Z,25.40
2018-12-31T20:15:36.347Z,31.83
2018-12-31T20:18:04.384Z,29.73
2018-12-31T20:20:32.455Z,28.43
2018-12-31T20:23:00.479Z,28.93
2018-12-31T20:25:28.550Z,23.77
2018-12-31T20:27:56.584Z,26.80
2018-12-31T20:30:24.646Z,23.70
2018-12-31T20:32:52.689Z,24.60
2018-12-31T20:35:20.783Z,28.30
2018-12-31T20:37:48.828Z,25.90
2018-12-31T20:40:16.864Z,32.27
2018-12-31T20:42:44.923Z,48.10
2018-12-31T20:45:12.955Z,30.67
2018-12-31T20:47:41.039Z,30.17
2018-12-31T20:50:09.075Z,34.60
2018-12-31T20:52:37.123Z,28.27
2018-12-31T20:55:05.275Z,32.40
2018-12-31T20:57:33.488Z,30.77
2018-12-31T21:00:01.540Z,40.90
2018-12-31T21:02:29.567Z,30.93
2018-12-31T21:04:57.632Z,30.27
2018-12-31T21:07:25.704Z,33.40
2018-12-31T21:09:53.748Z,30.90
2018-12-31T21:12:21.781Z,29.10
2018-12-31T21:14:49.842Z,31.13
2018-12-31T21:17:18.213Z,37.93
2018-12-31T21:19:46.547Z,32.10
2018-12-31T21:22:14.573Z,36.40
2018-12-31T21:24:42.615Z,31.73
2018-12-31T21:27:10.686Z,36.93
2018-12-31T21:29:38.715Z,37.40
2018-12-31T21:32:06.867Z,30.83
2018-12-31T21:34:34.913Z,31.67
2018-12-31T21:37:02.981Z,31.83
2018-12-31T21:39:31.014Z,31.10
2018-12-31T21:41:59.224Z,36.10
2018-12-31T21:44:27.674Z,29.47
2018-12-31T21:46:55.760Z,34.17
2018-12-31T21:49:23.823Z,42.73
2018-12-31T21:51:51.855Z,38.50
2018-12-31T21:54:19.911Z,33.33
2018-12-31T21:56:47.947Z,37.40
2018-12-31T21:59:16.517Z,37.40
2018-12-31T22:01:44.551Z,34.03
2018-12-31T22:04:12.610Z,40.27
2018-12-31T22:06:40.694Z,38.67
2018-12-31T22:09:08.731Z,41.47
2018-12-31T22:11:36.780Z,41.07
2018-12-31T22:14:04.824Z,43.00
2018-12-31T22:16:33.127Z,38.80
2018-12-31T22:19:01.181Z,45.40
2018-12-31T22:21:29.330Z,41.43
2018-12-31T22:23:57.503Z,52.13
2018-12-31T22:26:25.944Z,39.63
2018-12-31T22:28:53.992Z,41.60
2018-12-31T22:31:22.075Z,40.10
2018-12-31T22:33:50.141Z,39.50
2018-12-31T22:36:18.192Z,32.07
2018-12-31T22:38:46.371Z,44.63
2018-12-31T22:41:14.462Z,47.30
2018-12-31T22:43:42.511Z,45.47
2018-12-31T22:46:10.586Z,41.03
2018-12-31T22:48:38.651Z,42.37
2018-12-31T22:51:06.741Z,50.73
2018-12-31T22:53:35.572Z,49.07
2018-12-31T22:56:03.634Z,53.30
2018-12-31T22:58:31.671Z,48.70
2018-12-31T23:00:59.717Z,49.50
2018-12-31T23:03:27.788Z,632.20
2018-12-31T23:05:55.931Z,784.40
2018-12-31T23:08:24.111Z,641.30
2018-12-31T23:10:52.267Z,541.53
2018-12-31T23:13:20.303Z,826.70
2018-12-31T23:15:48.410Z,517.00
2018-12-31T23:18:16.448Z,555.97
2018-12-31T23:20:44.711Z,569.40
2018-12-31T23:23:12.767Z,603.33
2018-12-31T23:25:40.938Z,589.83
2018-12-31T23:28:08.927Z,540.57
2018-12-31T23:30:36.996Z,560.60
2018-12-31T23:33:05.067Z,471.73
2018-12-31T23:35:33.129Z,377.57
2018-12-31T23:38:01.240Z,414.57
2018-12-31T23:40:29.331Z,283.83
2018-12-31T23:42:57.600Z,297.23
2018-12-31T23:45:25.658Z,291.20
2018-12-31T23:47:54.130Z,262.70
2018-12-31T23:50:22.203Z,266.00
2018-12-31T23:52:50.245Z,236.27
2018-12-31T23:55:19.987Z,235.90
2018-12-31T23:57:48.068Z,262.00
